createdAt,value
2023-08-11T00:03:52.370Z,100.00
2023-08-11T00:08:55.793Z,100.00
2023-08-11T00:13:58.616Z,100.00
2023-08-11T00:19:02.766Z,100.00
2023-08-11T00:24:07.598Z,100.00
2023-08-11T00:29:12.797Z,100.00
2023-08-11T00:34:17.087Z,100.00
2023-08-11T00:39:19.888Z,100.00
2023-08-11T00:44:23.111Z,100.00
2023-08-11T00:49:27.433Z,100.00
2023-08-11T00:54:32.323Z,100.00
2023-08-11T00:59:35.224Z,100.00
2023-08-11T01:04:41.154Z,100.00
2023-08-11T01:09:53.275Z,100.00
2023-08-11T01:15:05.978Z,100.00
2023-08-11T01:20:13.179Z,100.00
2023-08-11T01:25:19.453Z,100.00
2023-08-11T01:30:22.341Z,100.00
2023-08-11T01:35:34.313Z,100.00
2023-08-11T01:40:45.646Z,100.00
2023-08-11T01:45:50.367Z,100.00
2023-08-11T01:50:53.470Z,100.00
2023-08-11T01:55:58.174Z,100.00
2023-08-11T02:01:01.032Z,100.00
2023-08-11T02:06:05.132Z,100.00
2023-08-11T02:11:11.416Z,100.00
2023-08-11T02:16:14.994Z,100.00
2023-08-11T02:21:18.005Z,100.00
2023-08-11T02:26:22.963Z,100.00
2023-08-11T02:31:26.883Z,100.00
2023-08-11T02:36:29.675Z,100.00
2023-08-11T02:41:34.716Z,100.00
2023-08-11T02:46:39.003Z,100.00
2023-08-11T02:51:41.911Z,100.00
2023-08-11T02:56:50.380Z,100.00
2023-08-11T03:01:53.246Z,100.00
2023-08-11T03:06:56.730Z,100.00
2023-08-11T03:12:01.069Z,100.00
2023-08-11T03:17:07.282Z,100.00
2023-08-11T03:22:12.840Z,100.00
2023-08-11T03:27:17.504Z,100.00
2023-08-11T03:32:21.304Z,100.00
2023-08-11T03:37:25.267Z,100.00
2023-08-11T03:42:29.473Z,100.00
2023-08-11T03:47:32.486Z,100.00
2023-08-11T03:52:36.995Z,100.00
2023-08-11T03:57:41.312Z,100.00
2023-08-11T04:02:47.570Z,100.00
2023-08-11T04:07:54.645Z,100.00
2023-08-11T04:12:58.905Z,100.00
2023-08-11T04:18:02.041Z,100.00
2023-08-11T04:23:06.078Z,100.00
2023-08-11T04:28:14.095Z,100.00
2023-08-11T04:33:17.620Z,100.00
2023-08-11T04:38:21.297Z,100.00
2023-08-11T04:43:26.461Z,100.00
2023-08-11T04:48:31.005Z,100.00
2023-08-11T04:53:35.204Z,100.00
2023-08-11T04:58:40.476Z,100.00
2023-08-11T05:03:44.395Z,100.00
2023-08-11T05:08:47.609Z,100.00
2023-08-11T05:13:52.068Z,100.00
2023-08-11T05:18:56.046Z,100.00
2023-08-11T05:23:59.317Z,100.00
2023-08-11T05:29:03.550Z,100.00
2023-08-11T05:34:06.519Z,100.00
2023-08-11T05:39:12.512Z,100.00
2023-08-11T05:44:16.702Z,100.00
2023-08-11T05:49:20.251Z,100.00
2023-08-11T05:54:23.148Z,100.00
2023-08-11T05:59:28.780Z,100.00
2023-08-11T06:04:31.705Z,100.00
2023-08-11T06:09:35.209Z,100.00
2023-08-11T06:14:39.441Z,100.00
2023-08-11T06:19:42.268Z,100.00
2023-08-11T06:24:45.594Z,100.00
2023-08-11T06:29:50.585Z,100.00
2023-08-11T06:34:54.520Z,100.00
2023-08-11T06:39:59.420Z,100.00
2023-08-11T06:45:05.636Z,100.00
2023-08-11T06:50:09.310Z,100.00
2023-08-11T06:55:12.148Z,100.00
2023-08-11T07:00:17.486Z,100.00
2023-08-11T07:05:20.399Z,100.00
2023-08-11T07:10:23.274Z,100.00
2023-08-11T07:15:28.486Z,100.00
2023-08-11T07:20:31.327Z,100.00
2023-08-11T07:25:34.671Z,100.00
2023-08-11T07:30:38.921Z,100.00
2023-08-11T07:35:42.512Z,100.00
2023-08-11T07:40:45.371Z,100.00
2023-08-11T07:45:50.332Z,100.00
2023-08-11T07:50:53.261Z,100.00
2023-08-11T07:55:57.300Z,96.17
2023-08-11T08:01:02.818Z,96.17
2023-08-11T08:06:06.144Z,95.53
2023-08-11T08:11:09.486Z,92.94
2023-08-11T08:16:13.876Z,94.14
2023-08-11T08:21:17.368Z,91.38
2023-08-11T08:26:20.185Z,90.72
2023-08-11T08:31:24.427Z,88.90
2023-08-11T08:36:28.085Z,87.58
2023-08-11T08:41:33.356Z,85.74
2023-08-11T08:46:38.695Z,84.64
2023-08-11T08:51:43.536Z,83.85
2023-08-11T08:56:47.429Z,77.99
2023-08-11T09:01:52.374Z,79.86
2023-08-11T09:06:55.472Z,79.00
2023-08-11T09:11:59.986Z,79.50
2023-08-11T09:17:04.395Z,78.81
2023-08-11T09:22:12.371Z,75.91
2023-08-11T09:27:15.470Z,73.13
2023-08-11T09:32:26.997Z,70.66
2023-08-11T09:37:30.119Z,67.69
2023-08-11T09:42:33.892Z,68.68
2023-08-11T09:47:38.085Z,68.73
2023-08-11T09:52:42.131Z,70.94
2023-08-11T09:57:46.006Z,63.32
2023-08-11T10:02:58.439Z,64.35
2023-08-11T10:08:05.654Z,62.08
2023-08-11T10:13:13.207Z,61.64
2023-08-11T10:18:20.411Z,62.14
2023-08-11T10:23:23.664Z,61.25
2023-08-11T10:28:27.036Z,57.97
2023-08-11T10:33:32.533Z,56.93
2023-08-11T10:38:35.795Z,55.17
2023-08-11T10:43:42.237Z,58.27
2023-08-11T10:48:46.560Z,56.53
2023-08-11T10:53:49.546Z,53.72
2023-08-11T10:58:52.764Z,56.12
2023-08-11T11:03:57.189Z,51.00
2023-08-11T11:09:01.230Z,51.21
2023-08-11T11:14:04.708Z,54.21
2023-08-11T11:19:10.498Z,51.46
2023-08-11T11:24:13.326Z,49.29
2023-08-11T11:29:18.390Z,48.26
2023-08-11T11:34:23.481Z,48.94
2023-08-11T11:39:27.119Z,48.95
2023-08-11T11:44:30.739Z,47.49
2023-08-11T11:49:34.885Z,47.71
2023-08-11T11:54:38.521Z,48.06
2023-08-11T11:59:42.708Z,47.94
2023-08-11T12:04:48.371Z,48.10
2023-08-11T12:09:52.068Z,48.15
2023-08-11T12:14:55.376Z,46.28
2023-08-11T12:19:59.827Z,44.10
2023-08-11T12:25:02.666Z,42.63
2023-08-11T12:30:10.632Z,41.74
2023-08-11T12:35:16.271Z,42.96
2023-08-11T12:40:19.777Z,42.37
2023-08-11T12:45:22.733Z,41.07
2023-08-11T12:50:29.417Z,39.24
2023-08-11T12:55:32.517Z,39.00
2023-08-11T13:00:36.346Z,37.71
2023-08-11T13:05:40.892Z,39.68
2023-08-11T13:10:44.103Z,38.64
2023-08-11T13:15:48.565Z,35.49
2023-08-11T13:20:53.004Z,36.80
2023-08-11T13:25:56.184Z,39.83
2023-08-11T13:30:58.986Z,39.81
2023-08-11T13:36:03.237Z,38.88
2023-08-11T13:41:06.065Z,38.37
2023-08-11T13:46:09.456Z,36.10
2023-08-11T13:51:14.000Z,36.38
2023-08-11T13:56:16.803Z,36.66
2023-08-11T14:01:19.696Z,37.08
2023-08-11T14:06:25.172Z,37.80
2023-08-11T14:11:28.184Z,34.47
2023-08-11T14:16:31.204Z,36.02
2023-08-11T14:21:35.412Z,35.08
2023-08-11T14:26:38.945Z,38.91
2023-08-11T14:31:42.307Z,39.23
2023-08-11T14:36:46.798Z,37.41
2023-08-11T14:41:50.612Z,37.53
2023-08-11T14:46:53.722Z,36.48
2023-08-11T14:51:57.918Z,34.30
2023-08-11T14:57:00.792Z,39.12
2023-08-11T15:02:03.555Z,42.20
2023-08-11T15:07:08.377Z,42.30
2023-08-11T15:12:12.722Z,43.14
2023-08-11T15:17:15.771Z,39.86
2023-08-11T15:22:20.657Z,41.48
2023-08-11T15:27:23.748Z,37.45
2023-08-11T15:32:26.687Z,37.53
2023-08-11T15:37:31.354Z,34.39
2023-08-11T15:42:34.184Z,33.03
2023-08-11T15:47:37.248Z,30.72
2023-08-11T15:52:41.416Z,30.05
2023-08-11T15:57:44.947Z,30.43
2023-08-11T16:02:49.489Z,30.02
2023-08-11T16:07:54.881Z,30.42
2023-08-11T16:12:58.506Z,30.82
2023-08-11T16:18:01.405Z,29.62
2023-08-11T16:23:06.634Z,30.12
2023-08-11T16:28:11.737Z,30.81
2023-08-11T16:33:14.626Z,30.56
2023-08-11T16:38:18.876Z,30.10
2023-08-11T16:43:22.675Z,28.81
2023-08-11T16:48:25.458Z,31.86
2023-08-11T16:53:29.638Z,34.56
2023-08-11T16:58:33.323Z,30.41
2023-08-11T17:03:36.247Z,30.30
2023-08-11T17:08:40.711Z,29.78
2023-08-11T17:13:44.139Z,31.32
2023-08-11T17:18:50.623Z,35.01
2023-08-11T17:23:55.853Z,38.68
2023-08-11T17:28:58.785Z,40.26
2023-08-11T17:34:02.452Z,44.07
2023-08-11T17:39:08.311Z,47.29
2023-08-11T17:44:11.193Z,49.12
2023-08-11T17:49:14.491Z,50.05
2023-08-11T17:54:21.052Z,51.56
2023-08-11T17:59:24.357Z,53.72
2023-08-11T18:04:27.208Z,54.51
2023-08-11T18:09:32.255Z,55.94
2023-08-11T18:14:35.355Z,57.80
2023-08-11T18:19:38.271Z,59.38
2023-08-11T18:24:42.445Z,62.92
2023-08-11T18:29:46.149Z,67.32
2023-08-11T18:34:49.011Z,68.40
2023-08-11T18:39:53.727Z,68.29
2023-08-11T18:44:57.047Z,67.65
2023-08-11T18:50:00.047Z,73.47
2023-08-11T18:55:04.471Z,73.73
2023-08-11T19:00:10.051Z,76.01
2023-08-11T19:05:14.146Z,81.80
2023-08-11T19:10:18.935Z,85.78
2023-08-11T19:15:22.310Z,90.44
2023-08-11T19:20:25.149Z,85.10
2023-08-11T19:25:30.397Z,86.85
2023-08-11T19:30:33.739Z,88.99
2023-08-11T19:35:36.635Z,90.18
2023-08-11T19:40:45.049Z,92.33
2023-08-11T19:45:49.492Z,93.52
2023-08-11T19:50:52.371Z,94.09
2023-08-11T19:55:56.681Z,94.59
2023-08-11T20:01:00.860Z,98.40
2023-08-11T20:06:04.728Z,100.00
2023-08-11T20:11:09.190Z,100.00
2023-08-11T20:16:12.083Z,100.00
2023-08-11T20:21:15.139Z,100.00
2023-08-11T20:26:19.323Z,100.00
2023-08-11T20:31:23.587Z,100.00
2023-08-11T20:36:26.460Z,100.00
2023-08-11T20:41:30.946Z,100.00
2023-08-11T20:46:33.847Z,100.00
2023-08-11T20:51:37.700Z,100.00
2023-08-11T20:56:41.962Z,100.00
2023-08-11T21:01:45.378Z,100.00
2023-08-11T21:06:48.731Z,100.00
2023-08-11T21:11:56.424Z,100.00
2023-08-11T21:17:02.545Z,100.00
2023-08-11T21:22:06.274Z,100.00
2023-08-11T21:27:10.864Z,100.00
2023-08-11T21:32:15.089Z,100.00
2023-08-11T21:37:19.044Z,100.00
2023-08-11T21:42:23.284Z,100.00
2023-08-11T21:47:27.133Z,100.00
2023-08-11T21:52:31.001Z,100.00
2023-08-11T21:57:35.456Z,100.00
2023-08-11T22:02:38.821Z,100.00
2023-08-11T22:07:43.643Z,100.00
2023-08-11T22:12:47.820Z,100.00
2023-08-11T22:17:52.120Z,100.00
2023-08-11T22:22:54.946Z,100.00
2023-08-11T22:27:59.081Z,100.00
2023-08-11T22:33:02.635Z,100.00
2023-08-11T22:38:05.633Z,100.00
2023-08-11T22:43:09.953Z,100.00
2023-08-11T22:48:12.986Z,100.00
2023-08-11T22:53:15.857Z,100.00
2023-08-11T22:58:20.055Z,100.00
2023-08-11T23:03:22.888Z,100.00
2023-08-11T23:08:26.256Z,100.00
2023-08-11T23:13:30.670Z,100.00
2023-08-11T23:18:33.847Z,100.00
2023-08-11T23:23:36.904Z,100.00
2023-08-11T23:28:41.171Z,100.00
2023-08-11T23:33:44.115Z,100.00
2023-08-11T23:38:48.663Z,100.00
2023-08-11T23:43:53.208Z,100.00
2023-08-11T23:48:56.260Z,100.00
2023-08-11T23:53:59.111Z,100.00
2023-08-11T23:59:03.382Z,100.00
